Flight Track Log - Related Links

Times and Time Zones

All times are in EDT time to prevent confusion due to time zone crossing. See the OPT429 flight status page for this flight to view local times or setup timezone preferences in your user account.

Time Position Orientation Groundspeed Altitude Reporting Facility
EDT Latitude Longitude Course Direction KTS MPH feet Rate Location/Type
Thu 01:50:38 PM 27.3833 -82.5500 119° Southeast 157 181 900  Level Tampa TRACON
Thu 01:51:20 PM 27.3667 -82.5167 119° Southeast 204 235 2,600 2,891 Climbing Tampa TRACON
Thu 01:53:51 PM 27.2425 -82.4167 81° East 253 291 10,200 3,028 Climbing Miami Center
Thu 01:54:54 PM 27.2614 -82.3375 75° East 268 308 13,400 2,880 Climbing Miami Center
Thu 01:55:00 PM 27.3920 -82.3420 81° East  Level Estimated
Thu 01:55:56 PM 27.2789 -82.2564 76° East 272 313 16,200  Level Miami Center
Thu 01:56:58 PM 27.3019 -82.1503 76° East 290 334 18,200 1,113 Climbing Miami Center
Thu 01:58:00 PM 27.3247 -82.0431 77° East 338 389 18,500 387 Climbing Miami Center
Thu 01:59:02 PM 27.3489 -81.9283 77° East 357 411 19,000 145 Climbing Miami Center
Thu 02:00:04 PM 27.3717 -81.8206 77° East 343 395 18,800 -581 Descending Miami Center
Thu 02:01:06 PM 27.3897 -81.7361 76° East 341 392 17,800 -1,016 Descending Miami Center
Thu 02:02:08 PM 27.4122 -81.6222 77° East 313 360 16,700 -1,016 Descending Miami Center
Thu 02:03:10 PM 27.4317 -81.5297 77° East 309 356 15,700 -968 Descending Miami Center
Thu 02:04:12 PM 27.4478 -81.4339 79° East 311 358 14,700 -1,065 Descending Miami Center
Thu 02:05:14 PM 27.4644 -81.3206 81° East 320 368 13,500 -1,065 Descending Miami Center
Thu 02:06:16 PM 27.4797 -81.2206 80° East 314 361 12,500 -968 Descending Miami Center
Thu 02:07:18 PM 27.5003 -81.1286 76° East 314 361 11,500 -1,016 Descending Miami Center
Thu 02:08:20 PM 27.5219 -81.0294 76° East 314 361 10,400 -1,355 Descending Miami Center
Thu 02:09:22 PM 27.5425 -80.9367 76° East 297 342 8,700 -1,984 Descending Miami Center
Thu 02:10:24 PM 27.5622 -80.8469 76° East 284 327 6,300 -2,177 Descending Miami Center
Thu 02:11:26 PM 27.5803 -80.7644 76° East 278 320 4,200 -1,645 Descending Miami Center
Thu 02:12:28 PM 27.5981 -80.6825 76° East 260 299 2,900 -726 Descending Miami Center
Thu 02:13:30 PM 27.6150 -80.6064 76° East 240 276 2,700 -532 Descending Miami Center
Thu 02:14:32 PM 27.6314 -80.5383 75° East 220 253 1,800 -774 Descending Miami Center
Thu 02:15:34 PM 27.6583 -80.4917 57° Northeast 173 199 1,100 -629 Descending Miami Center
Thu 02:16:36 PM 27.6664 -80.4539 76° East 125 144 500 -484 Descending Miami Center
Thu 02:17:38 PM 27.6567 -80.4233 110° East 118 136 100 -387 Descending Miami Center

Login

Don't have an account? Register now (free) for customized features, flight alerts, and more!